Terminal Aerodrome Forecast
Issued by NWS

Home | Current Version | Previous Version | Text Only | Print | Product List | Glossary On
Versions: 1 2 3 4 5 6 7 8 9 10 11 12 13 14 15 16 17 18 19 20 21 22 23 24 25 26
287
FTUS46 KMTR 102102 AAA
TAFSFO
TAF AMD
KSFO 102102Z 1021/1124 19008KT 3SM -RA BR FEW009 BKN018 OVC030
     FM102300 21010KT 4SM -RA BR BKN015 OVC030
     FM110100 23007KT 5SM -SHRA BR BKN015 OVC030
     FM110300 26009KT 6SM BR VCSH SCT012 BKN018 OVC030
     FM110600 27010KT P6SM FEW015 BKN020 OVC035
     FM111500 30006KT P6SM FEW018 SCT030 BKN200=

USA.gov is the U.S. government's official web portal to all federal, state and local government web resources and services.